Time;durP1;ratioP1;P1;durP2;ratioP2;P2;SDS_P1;SDS_P2;PMS_P1;PMS_P2;Temp;Humidity;BMP_temperature;BMP_pressure;BME280_temperature;BME280_humidity;BME280_pressure;Samples;Min_cycle;Max_cycle;Signal;HPM_P1;HPM_P2
2022/04/14 00:01:36;;;;;;;10.02;4.22;;;14.80;99.90;;;;;;5054722;28;20025;-66
2022/04/14 00:04:02;;;;;;;11.43;5.03;;;14.70;99.90;;;;;;5054601;28;20053;-65
2022/04/14 00:06:28;;;;;;;15.27;3.60;;;14.70;99.90;;;;;;5054474;28;20059;-66
2022/04/14 00:08:53;;;;;;;12.73;4.78;;;14.70;99.90;;;;;;5054131;28;20450;-66
2022/04/14 00:11:20;;;;;;;12.37;4.90;;;14.60;99.90;;;;;;5054566;28;20468;-67
2022/04/14 00:13:46;;;;;;;;;;;14.60;99.90;;;;;;5054663;28;20259;-66
2022/04/14 00:16:12;;;;;;;12.38;4.65;;;14.50;99.90;;;;;;5036043;28;19904;-66
2022/04/14 00:18:37;;;;;;;26.58;11.20;;;14.60;99.90;;;;;;5036579;28;20040;-66
2022/04/14 00:21:03;;;;;;;18.35;6.70;;;14.50;99.90;;;;;;5054479;28;20028;-66
2022/04/14 00:23:28;;;;;;;11.47;5.30;;;14.50;99.90;;;;;;5036064;28;20021;-66
2022/04/14 00:25:54;;;;;;;8.70;3.90;;;14.50;99.90;;;;;;5054015;28;20393;-66
2022/04/14 00:28:20;;;;;;;9.05;4.43;;;14.50;99.90;;;;;;5054141;28;20029;-66
2022/04/14 00:30:45;;;;;;;12.63;4.03;;;14.50;99.90;;;;;;5035930;28;20021;-67
2022/04/14 00:33:11;;;;;;;12.27;4.13;;;14.50;99.90;;;;;;5053666;28;20696;-66
2022/04/14 00:35:36;;;;;;;11.00;3.97;;;14.50;99.90;;;;;;5053765;28;20040;-65
2022/04/14 00:38:02;;;;;;;7.43;3.60;;;14.40;99.90;;;;;;5053841;28;20025;-65
2022/04/14 00:40:28;;;;;;;9.70;4.30;;;14.40;99.90;;;;;;5054010;28;20383;-66
2022/04/14 00:42:53;;;;;;;11.77;4.73;;;14.40;99.90;;;;;;5053445;28;20071;-66
2022/04/14 00:45:19;;;;;;;12.40;4.03;;;14.30;99.90;;;;;;5053605;28;20267;-66
2022/04/14 00:47:45;;;;;;;6.88;3.25;;;14.30;99.90;;;;;;5053528;28;20055;-66
2022/04/14 00:50:12;;;;;;;16.55;6.70;;;14.30;99.90;;;;;;5053566;28;20052;-67
2022/04/14 00:52:44;;;;;;;10.82;5.43;;;14.20;99.90;;;;;;5053304;28;20033;-67
2022/04/14 00:55:10;;;;;;;8.82;4.80;;;14.20;99.90;;;;;;5054048;28;20021;-67
2022/04/14 00:57:35;;;;;;;9.73;5.23;;;14.20;99.90;;;;;;5053371;28;20028;-66
2022/04/14 01:00:01;;;;;;;11.53;4.83;;;14.20;99.90;;;;;;5053431;28;20263;-65
2022/04/14 01:02:27;;;;;;;6.95;3.55;;;14.10;99.90;;;;;;5052559;28;20336;-66
2022/04/14 01:04:53;;;;;;;8.27;3.88;;;14.10;99.90;;;;;;5053688;28;20032;-66
2022/04/14 01:07:19;;;;;;;10.43;4.03;;;14.10;99.90;;;;;;5035490;28;20019;-66
2022/04/14 01:09:46;;;;;;;48.97;29.13;;;14.10;99.90;;;;;;5053172;28;20109;-66
2022/04/14 01:12:12;;;;;;;27.38;17.88;;;14.10;99.90;;;;;;5053102;28;20043;-67
2022/04/14 01:14:38;;;;;;;16.83;11.13;;;14.10;99.90;;;;;;5053198;28;20507;-66
2022/04/14 01:17:08;;;;;;;14.88;9.15;;;14.10;99.90;;;;;;5035474;28;20052;-66
2022/04/14 01:19:35;;;;;;;15.20;7.35;;;14.10;99.90;;;;;;5053167;28;20029;-66
2022/04/14 01:22:15;;;;;;;11.73;6.18;;;14.00;99.90;;;;;;5035344;28;20120;-65
2022/04/14 01:24:41;;;;;;;13.70;5.97;;;14.00;99.90;;;;;;5053883;28;20036;-67
2022/04/14 01:27:08;;;;;;;12.95;6.10;;;14.00;99.90;;;;;;5053844;28;20013;-66
2022/04/14 01:29:34;;;;;;;12.18;5.32;;;14.00;99.90;;;;;;5053145;28;20029;-65
2022/04/14 01:32:03;;;;;;;9.52;5.35;;;14.00;99.90;;;;;;5035861;28;20097;-65
2022/04/14 01:34:31;;;;;;;15.95;4.30;;;14.00;99.90;;;;;;5053354;28;20056;-65
2022/04/14 01:37:00;;;;;;;8.38;4.40;;;13.90;99.90;;;;;;5053180;28;20025;-65
2022/04/14 01:39:27;;;;;;;7.55;3.55;;;14.00;99.90;;;;;;5053045;28;20025;-66
2022/04/14 01:41:53;;;;;;;;;;;14.00;99.90;;;;;;5053050;28;20032;-66
2022/04/14 01:44:18;;;;;;;9.25;3.60;;;14.00;99.90;;;;;;5034706;28;19905;-66
2022/04/14 01:46:44;;;;;;;10.53;3.93;;;14.00;99.90;;;;;;5034979;28;20025;-66
2022/04/14 01:49:10;;;;;;;12.95;4.07;;;14.00;99.90;;;;;;5034649;28;20282;-65
2022/04/14 01:51:36;;;;;;;5.88;3.42;;;14.00;99.90;;;;;;5052535;28;20037;-65
2022/04/14 01:54:02;;;;;;;9.00;3.35;;;14.00;99.90;;;;;;5053131;28;20036;-67
2022/04/14 01:56:28;;;;;;;9.32;3.88;;;13.90;99.90;;;;;;5053017;28;20037;-66
2022/04/14 01:58:53;;;;;;;11.30;5.57;;;13.90;99.90;;;;;;5053196;28;20100;-66
2022/04/14 02:01:20;;;;;;;10.57;4.50;;;13.90;99.90;;;;;;5054132;28;20029;-66
2022/04/14 02:03:46;;;;;;;;;;;13.90;99.90;;;;;;5054584;28;20087;-66
2022/04/14 02:06:11;;;;;;;8.25;3.72;;;13.80;99.90;;;;;;5054422;28;19905;-67
2022/04/14 02:08:37;;;;;;;9.32;3.33;;;13.80;99.90;;;;;;5054099;28;20047;-66
2022/04/14 02:11:03;;;;;;;7.50;3.83;;;13.80;99.90;;;;;;5035536;28;20033;-66
2022/04/14 02:13:30;;;;;;;7.25;3.60;;;13.70;99.90;;;;;;5056184;28;20399;-66
2022/04/14 02:15:56;;;;;;;10.77;4.10;;;13.60;99.90;;;;;;5041266;28;20121;-65
2022/04/14 02:18:21;;;;;;;15.20;5.87;;;13.70;99.90;;;;;;5058227;28;20495;-66
2022/04/14 02:20:47;;;;;;;10.80;3.77;;;13.60;99.90;;;;;;5056875;28;20025;-65
2022/04/14 02:23:13;;;;;;;13.50;3.77;;;13.60;99.90;;;;;;5056325;28;20264;-66
2022/04/14 02:25:38;;;;;;;8.18;3.40;;;13.50;99.90;;;;;;5056433;28;20029;-67
2022/04/14 02:28:04;;;;;;;6.80;3.50;;;13.50;99.90;;;;;;5056468;28;20112;-66
2022/04/14 02:30:30;;;;;;;6.93;3.50;;;13.50;99.90;;;;;;5056636;28;20036;-66
2022/04/14 02:32:56;;;;;;;15.73;4.57;;;13.50;99.90;;;;;;5056524;28;20033;-66
2022/04/14 02:35:21;;;;;;;7.20;3.63;;;13.50;99.90;;;;;;5056647;28;20263;-66
2022/04/14 02:37:47;;;;;;;7.43;3.60;;;13.50;99.90;;;;;;5038823;28;20072;-66
2022/04/14 02:40:13;;;;;;;8.07;3.60;;;13.50;99.90;;;;;;5038828;28;20024;-66
2022/04/14 02:42:41;;;;;;;8.13;4.05;;;13.50;99.90;;;;;;5056546;28;20422;-66
2022/04/14 02:45:07;;;;;;;6.45;3.58;;;13.50;99.90;;;;;;5056350;28;20017;-67
2022/04/14 02:47:35;;;;;;;8.40;3.85;;;13.50;99.90;;;;;;5056143;28;20025;-66
2022/04/14 02:50:01;;;;;;;8.88;3.50;;;13.50;99.90;;;;;;5055954;28;20054;-66
2022/04/14 02:52:27;;;;;;;;;;;13.60;99.90;;;;;;5038543;28;20033;-64
2022/04/14 02:54:52;;;;;;;8.50;3.85;;;13.60;99.90;;;;;;5056572;28;20384;-64
2022/04/14 02:57:18;;;;;;;12.80;4.03;;;13.60;99.90;;;;;;5056234;28;20032;-64
2022/04/14 02:59:43;;;;;;;7.03;4.13;;;13.70;99.90;;;;;;5056553;28;20032;-64
2022/04/14 03:02:09;;;;;;;12.40;4.53;;;13.70;99.90;;;;;;5056162;28;20029;-63
2022/04/14 03:04:34;;;;;;;6.50;4.07;;;13.60;99.90;;;;;;5056291;28;20053;-65
2022/04/14 03:07:00;;;;;;;8.43;4.23;;;13.50;99.90;;;;;;5056275;28;20387;-65
2022/04/14 03:09:25;;;;;;;9.02;4.25;;;13.50;99.90;;;;;;5055989;28;20071;-64
2022/04/14 03:11:52;;;;;;;11.73;4.30;;;13.40;99.90;;;;;;5055719;28;20033;-63
2022/04/14 03:14:18;;;;;;;10.82;4.03;;;13.40;99.90;;;;;;5056008;28;20029;-64
2022/04/14 03:16:43;;;;;;;8.57;4.03;;;13.50;99.90;;;;;;5055552;28;20475;-64
2022/04/14 03:19:09;;;;;;;19.67;4.60;;;13.50;99.90;;;;;;5055898;28;20402;-63
2022/04/14 03:21:34;;;;;;;11.27;3.90;;;13.40;99.90;;;;;;5055747;28;20048;-63
2022/04/14 03:24:00;;;;;;;7.20;4.03;;;13.30;99.90;;;;;;5055975;28;20266;-63
2022/04/14 03:26:25;;;;;;;14.90;4.30;;;13.30;99.90;;;;;;5055164;28;20021;-66
2022/04/14 03:28:51;;;;;;;11.03;3.90;;;13.20;99.90;;;;;;5056171;28;20070;-63
2022/04/14 03:31:16;;;;;;;11.47;4.33;;;13.20;99.90;;;;;;5055468;28;20033;-64
2022/04/14 03:33:42;;;;;;;12.33;4.50;;;13.10;99.90;;;;;;5055688;28;20025;-63
2022/04/14 03:36:08;;;;;;;9.57;4.37;;;13.10;99.90;;;;;;5055407;28;20662;-63
2022/04/14 03:38:33;;;;;;;11.47;3.90;;;13.00;99.90;;;;;;5055727;28;20056;-63
2022/04/14 03:41:06;;;;;;;12.77;3.80;;;13.00;99.90;;;;;;5055604;28;20374;-64
2022/04/14 03:43:32;;;;;;;11.38;4.22;;;13.00;99.90;;;;;;5055145;28;20017;-64
2022/04/14 03:45:58;;;;;;;8.50;4.63;;;13.00;99.90;;;;;;5055401;28;20506;-63
2022/04/14 03:48:24;;;;;;;8.10;4.30;;;13.00;99.90;;;;;;5055130;28;20029;-64
2022/04/14 03:50:49;;;;;;;22.10;5.23;;;12.90;99.90;;;;;;5055307;28;20463;-64
2022/04/14 03:53:17;;;;;;;8.83;4.20;;;12.90;99.90;;;;;;5037431;28;20126;-65
2022/04/14 03:55:43;;;;;;;11.85;4.65;;;12.90;99.90;;;;;;5055493;28;20391;-64
2022/04/14 03:58:08;;;;;;;8.57;4.23;;;12.90;99.90;;;;;;5055245;28;20099;-64
2022/04/14 04:00:34;;;;;;;11.10;4.37;;;12.90;99.90;;;;;;5055556;28;20101;-63
2022/04/14 04:02:59;;;;;;;10.67;4.07;;;12.90;99.90;;;;;;5054826;28;20036;-64
2022/04/14 04:05:25;;;;;;;10.50;4.30;;;12.90;99.90;;;;;;5054745;28;20040;-64
2022/04/14 04:07:50;;;;;;;10.90;4.60;;;12.90;99.90;;;;;;5054782;28;20369;-64
2022/04/14 04:10:16;;;;;;;9.83;4.00;;;12.90;99.90;;;;;;5037057;28;20120;-64
2022/04/14 04:12:41;;;;;;;13.52;5.43;;;12.90;99.90;;;;;;5055121;28;20108;-64
2022/04/14 04:15:07;;;;;;;13.90;4.77;;;12.90;99.90;;;;;;5037179;28;20029;-64
2022/04/14 04:17:33;;;;;;;11.25;5.18;;;12.90;99.90;;;;;;5055174;28;20387;-64
2022/04/14 04:19:58;;;;;;;11.20;4.47;;;13.10;99.90;;;;;;5054497;28;20029;-64
2022/04/14 04:22:24;;;;;;;9.77;4.50;;;13.10;99.90;;;;;;5054371;28;20037;-64
2022/04/14 04:24:50;;;;;;;8.98;5.05;;;13.10;99.90;;;;;;5054673;28;20025;-64
2022/04/14 04:27:15;;;;;;;12.43;5.10;;;13.00;99.90;;;;;;5054615;28;20025;-63
2022/04/14 04:29:41;;;;;;;12.27;5.33;;;13.00;99.90;;;;;;5054473;28;20267;-64
2022/04/14 04:32:07;;;;;;;8.70;4.50;;;12.90;99.90;;;;;;5054850;28;20040;-64
2022/04/14 04:34:32;;;;;;;11.85;5.00;;;12.90;99.90;;;;;;5054383;28;20028;-64
2022/04/14 04:36:58;;;;;;;9.43;4.27;;;12.90;99.90;;;;;;5036861;28;20120;-64
2022/04/14 04:39:23;;;;;;;14.03;4.90;;;12.80;99.90;;;;;;5054650;28;20057;-63
2022/04/14 04:41:49;;;;;;;8.70;4.60;;;12.80;99.90;;;;;;5054534;28;20021;-65
2022/04/14 04:44:15;;;;;;;10.60;4.90;;;13.00;99.90;;;;;;5054364;28;20029;-64
2022/04/14 04:46:40;;;;;;;11.67;5.07;;;13.00;99.90;;;;;;5054457;28;20032;-63
2022/04/14 04:49:06;;;;;;;13.33;5.03;;;13.00;99.90;;;;;;5057436;28;20090;-64
2022/04/14 04:51:31;;;;;;;11.00;5.07;;;13.00;99.90;;;;;;5056887;28;20029;-62
2022/04/14 04:53:57;;;;;;;9.50;4.43;;;13.00;99.90;;;;;;5054989;28;20479;-63
2022/04/14 04:56:22;;;;;;;11.73;5.40;;;12.90;99.90;;;;;;5054078;28;20268;-63
2022/04/14 04:58:48;;;;;;;21.83;6.77;;;12.90;99.90;;;;;;5054271;28;20037;-64
2022/04/14 05:01:13;;;;;;;12.37;5.23;;;12.80;99.90;;;;;;5054025;28;20036;-63
2022/04/14 05:03:39;;;;;;;11.37;4.50;;;12.80;99.90;;;;;;5053721;28;20029;-63
2022/04/14 05:06:05;;;;;;;12.60;4.50;;;12.90;99.90;;;;;;5053821;28;20493;-62
2022/04/14 05:08:31;;;;;;;12.32;5.07;;;12.80;99.90;;;;;;5055929;28;20024;-63
2022/04/14 05:10:56;;;;;;;13.77;5.17;;;12.80;99.90;;;;;;5056416;28;20387;-64
2022/04/14 05:13:22;;;;;;;15.87;4.77;;;12.80;99.90;;;;;;5038977;28;20032;-64
2022/04/14 05:15:48;;;;;;;12.07;4.50;;;12.80;99.90;;;;;;5057761;28;20263;-64
2022/04/14 05:18:13;;;;;;;10.13;4.93;;;12.70;99.90;;;;;;5057607;28;20029;-65
2022/04/14 05:20:42;;;;;;;11.23;4.87;;;12.70;99.90;;;;;;5059882;28;20092;-64
2022/04/14 05:23:11;;;;;;;8.75;4.78;;;12.70;99.90;;;;;;5059832;28;20029;-65
2022/04/14 05:25:39;;;;;;;11.00;4.47;;;12.80;99.90;;;;;;5059485;28;20108;-64
2022/04/14 05:28:05;;;;;;;11.15;5.35;;;12.80;99.90;;;;;;5060839;28;20028;-66
2022/04/14 05:30:30;;;;;;;13.52;4.90;;;12.80;99.90;;;;;;5059905;28;20032;-64
2022/04/14 05:32:56;;;;;;;9.50;4.93;;;12.80;99.90;;;;;;5059972;28;20086;-62
2022/04/14 05:35:21;;;;;;;13.90;5.30;;;12.80;99.90;;;;;;5058913;28;20029;-62
2022/04/14 05:37:47;;;;;;;9.47;5.07;;;12.90;99.90;;;;;;5054654;28;20029;-64
2022/04/14 05:40:13;;;;;;;10.10;5.13;;;12.90;99.90;;;;;;5059141;28;20037;-65
2022/04/14 05:42:42;;;;;;;16.17;5.47;;;12.90;99.90;;;;;;5059945;28;20079;-65
2022/04/14 05:45:08;;;;;;;8.70;5.00;;;12.90;99.90;;;;;;5059487;28;20175;-65
2022/04/14 05:47:34;;;;;;;12.25;5.65;;;12.90;99.90;;;;;;5059025;28;20021;-67
2022/04/14 05:49:59;;;;;;;12.17;5.97;;;12.90;99.90;;;;;;5063458;28;20021;-66
2022/04/14 05:52:25;;;;;;;11.37;5.10;;;12.90;99.90;;;;;;5061894;28;20499;-66
2022/04/14 05:54:50;;;;;;;14.40;5.50;;;13.00;99.90;;;;;;5061879;28;20100;-67
2022/04/14 05:57:17;;;;;;;13.00;5.07;;;13.00;99.90;;;;;;5061648;28;20099;-66
2022/04/14 05:59:43;;;;;;;11.60;5.30;;;13.10;99.90;;;;;;5060026;28;20101;-67
2022/04/14 06:02:09;;;;;;;11.95;5.72;;;13.10;99.90;;;;;;5059979;28;20103;-67
2022/04/14 06:04:35;;;;;;;10.30;4.85;;;13.20;99.90;;;;;;5060431;28;20465;-66
2022/04/14 06:07:00;;;;;;;11.00;4.70;;;13.20;99.90;;;;;;5061346;28;20105;-66
2022/04/14 06:09:26;;;;;;;10.60;5.33;;;13.20;99.90;;;;;;5042378;28;20021;-65
2022/04/14 06:11:52;;;;;;;12.80;5.47;;;13.30;99.90;;;;;;5060375;28;20029;-65
2022/04/14 06:14:17;;;;;;;19.13;6.53;;;13.40;99.90;;;;;;5041756;28;20298;-65
2022/04/14 06:16:43;;;;;;;9.55;5.10;;;13.40;99.90;;;;;;5060629;28;20101;-67
2022/04/14 06:19:09;;;;;;;13.13;5.43;;;13.50;99.90;;;;;;5060588;28;20107;-65
2022/04/14 06:21:34;;;;;;;11.98;5.07;;;13.60;99.90;;;;;;5059167;28;20032;-63
2022/04/14 06:24:00;;;;;;;13.20;5.80;;;13.70;99.90;;;;;;5059954;28;20081;-64
2022/04/14 06:26:25;;;;;;;9.97;5.87;;;13.80;99.90;;;;;;5041750;28;20025;-66
2022/04/14 06:28:51;;;;;;;12.53;6.03;;;13.90;99.90;;;;;;5041955;28;20135;-66
2022/04/14 06:31:16;;;;;;;12.90;6.77;;;14.00;99.90;;;;;;5060209;28;20052;-66
2022/04/14 06:33:44;;;;;;;11.90;6.47;;;14.10;99.90;;;;;;5060277;28;20035;-68
2022/04/14 06:36:10;;;;;;;14.25;6.68;;;14.20;99.90;;;;;;5041640;28;20279;-65
2022/04/14 06:38:36;;;;;;;14.70;6.72;;;14.30;99.90;;;;;;5059762;28;20023;-67
2022/04/14 06:41:02;;;;;;;18.40;7.53;;;14.40;99.90;;;;;;5060485;28;20367;-67
2022/04/14 06:43:28;;;;;;;25.80;10.02;;;14.50;99.90;;;;;;5060184;28;20070;-65
2022/04/14 06:45:54;;;;;;;14.95;7.38;;;14.60;99.90;;;;;;5041737;28;20453;-66
2022/04/14 06:48:20;;;;;;;16.60;6.90;;;14.60;99.90;;;;;;5059936;28;20025;-68
2022/04/14 06:50:45;;;;;;;13.85;7.68;;;14.80;99.90;;;;;;5059972;28;20025;-67
2022/04/14 06:53:11;;;;;;;17.00;8.07;;;14.90;99.90;;;;;;5060184;28;20029;-68
2022/04/14 06:55:37;;;;;;;;;;;15.00;99.90;;;;;;5060880;28;20017;-66
2022/04/14 06:58:03;;;;;;;15.93;9.23;;;15.00;99.90;;;;;;5059682;28;19943;-66
2022/04/14 07:00:30;;;;;;;21.30;13.40;;;15.10;99.90;;;;;;5055815;28;20021;-65
2022/04/14 07:02:57;;;;;;;24.50;14.75;;;15.30;99.90;;;;;;5039402;28;20082;-66
2022/04/14 07:05:23;;;;;;;;;;;15.40;99.90;;;;;;5057332;28;20167;-66
2022/04/14 07:07:49;;;;;;;24.27;15.65;;;15.60;99.90;;;;;;5058849;28;20398;-68
2022/04/14 07:10:14;;;;;;;;;;;15.70;99.90;;;;;;5059097;28;20021;-67
2022/04/14 07:12:42;;;;;;;19.88;13.43;;;15.80;99.90;;;;;;5058492;28;19905;-66
2022/04/14 07:15:08;;;;;;;22.15;14.60;;;15.90;99.90;;;;;;5057943;28;20060;-67
2022/04/14 07:17:34;;;;;;;22.50;15.38;;;16.00;99.90;;;;;;5058372;28;20056;-66
2022/04/14 07:20:01;;;;;;;20.95;15.18;;;16.10;99.90;;;;;;5058595;28;20040;-65
2022/04/14 07:22:26;;;;;;;26.00;15.30;;;16.20;99.90;;;;;;5057932;28;20052;-66
2022/04/14 07:24:53;;;;;;;22.92;14.13;;;16.40;99.90;;;;;;5058591;28;20028;-67
2022/04/14 07:27:21;;;;;;;24.77;15.32;;;16.60;99.90;;;;;;5058962;28;20025;-68
2022/04/14 07:29:47;;;;;;;21.25;14.63;;;16.60;99.90;;;;;;5057462;28;20025;-68
2022/04/14 07:32:14;;;;;;;19.98;13.82;;;16.70;99.90;;;;;;5057120;28;20162;-68
2022/04/14 07:34:40;;;;;;;22.48;14.50;;;16.90;99.90;;;;;;5058590;28;20037;-66
2022/04/14 07:37:05;;;;;;;23.70;14.57;;;17.00;99.90;;;;;;5057761;28;20124;-65
2022/04/14 07:39:31;;;;;;;21.70;14.98;;;17.10;99.90;;;;;;5057643;28;20108;-66
2022/04/14 07:41:57;;;;;;;22.77;14.50;;;17.20;99.90;;;;;;5057774;28;20492;-66
2022/04/14 07:44:23;;;;;;;21.05;14.50;;;17.30;99.90;;;;;;5057129;28;20032;-68
2022/04/14 07:46:48;;;;;;;23.50;15.98;;;17.50;99.90;;;;;;5058091;28;20033;-66
2022/04/14 07:49:14;;;;;;;19.52;13.82;;;17.60;99.90;;;;;;5057968;28;20029;-67
2022/04/14 07:51:40;;;;;;;21.02;14.55;;;17.60;99.90;;;;;;5057231;28;20108;-66
2022/04/14 07:54:06;;;;;;;21.15;14.50;;;17.70;99.90;;;;;;5058065;28;20111;-66
2022/04/14 07:56:33;;;;;;;21.20;14.95;;;17.90;99.90;;;;;;5057245;28;20455;-67
2022/04/14 07:58:59;;;;;;;20.50;13.55;;;18.00;99.90;;;;;;5058980;28;20124;-67
2022/04/14 08:01:25;;;;;;;;;;;18.10;99.90;;;;;;5059501;28;20028;-66
2022/04/14 08:03:51;;;;;;;20.00;15.02;;;18.20;99.90;;;;;;5057557;28;19905;-68
2022/04/14 08:06:16;;;;;;;19.63;14.10;;;18.20;99.90;;;;;;5041432;28;20024;-68
2022/04/14 08:08:42;;;;;;;23.25;14.40;;;18.50;99.90;;;;;;5058570;28;20049;-68
2022/04/14 08:11:09;;;;;;;22.42;14.75;;;18.70;99.90;;;;;;5059094;28;20467;-68
2022/04/14 08:13:37;;;;;;;22.55;14.85;;;18.80;99.90;;;;;;5060332;28;20052;-64
2022/04/14 08:16:06;;;;;;;19.80;13.90;;;18.80;99.90;;;;;;5061045;28;20021;-65
2022/04/14 08:18:35;;;;;;;23.83;15.07;;;18.90;99.90;;;;;;5058051;28;20021;-64
2022/04/14 08:21:00;;;;;;;25.52;15.40;;;18.90;99.90;;;;;;5060275;28;20017;-65
2022/04/14 08:23:26;;;;;;;25.00;15.25;;;18.80;99.90;;;;;;5059962;28;20024;-66
2022/04/14 08:25:51;;;;;;;25.48;15.35;;;18.70;99.90;;;;;;5058903;28;20075;-65
2022/04/14 08:28:17;;;;;;;22.52;15.10;;;18.60;99.90;;;;;;5057220;28;20025;-68
2022/04/14 08:30:44;;;;;;;21.02;14.90;;;18.70;99.90;;;;;;5039219;28;20048;-67
2022/04/14 08:33:12;;;;;;;21.90;15.20;;;18.90;99.90;;;;;;5057428;28;20387;-69
2022/04/14 08:35:37;;;;;;;21.38;15.10;;;19.10;99.90;;;;;;5036685;28;20549;-67
2022/04/14 08:38:06;;;;;;;27.15;14.13;;;19.40;99.90;;;;;;5054505;28;20037;-64
2022/04/14 08:40:38;;;;;;;20.42;14.00;;;20.30;99.90;;;;;;5036787;28;20063;-66
2022/04/14 08:43:06;;;;;;;22.60;15.00;;;20.40;99.90;;;;;;5055094;28;20444;-66
2022/04/14 08:45:34;;;;;;;19.08;14.23;;;20.40;99.90;;;;;;5055312;28;20565;-65
2022/04/14 08:48:02;;;;;;;20.45;13.98;;;20.20;99.90;;;;;;5036459;28;20040;-66
2022/04/14 08:50:28;;;;;;;20.10;14.13;;;20.10;99.90;;;;;;5056367;28;20081;-68
2022/04/14 08:52:54;;;;;;;21.23;14.85;;;20.00;99.90;;;;;;5054570;28;20057;-65
2022/04/14 08:55:20;;;;;;;20.73;14.32;;;19.90;99.90;;;;;;5053749;28;20437;-67
2022/04/14 08:57:47;;;;;;;19.00;13.93;;;20.00;99.90;;;;;;5054869;28;20025;-67
2022/04/14 09:00:16;;;;;;;22.88;13.75;;;20.10;99.90;;;;;;5053736;28;20471;-67
2022/04/14 09:02:45;;;;;;;25.95;15.55;;;20.20;99.90;;;;;;5035177;28;20040;-65
2022/04/14 09:05:17;;;;;;;21.63;14.80;;;20.30;99.90;;;;;;5053490;28;20048;-67
2022/04/14 09:07:46;;;;;;;23.98;14.60;;;20.20;99.90;;;;;;5053474;28;20028;-68
2022/04/14 09:10:11;;;;;;;20.73;14.55;;;20.30;99.90;;;;;;5035369;28;20475;-65
2022/04/14 09:12:37;;;;;;;19.58;14.02;;;20.30;99.90;;;;;;5053229;28;20029;-66
2022/04/14 09:15:04;;;;;;;22.88;14.55;;;20.30;99.90;;;;;;5035552;28;20040;-65
2022/04/14 09:17:30;;;;;;;22.88;15.25;;;20.30;99.90;;;;;;5053184;28;20021;-67
2022/04/14 09:19:56;;;;;;;24.40;16.25;;;20.30;99.90;;;;;;5054288;28;20025;-66
2022/04/14 09:22:21;;;;;;;25.42;15.98;;;20.40;99.90;;;;;;5052770;28;20047;-64
2022/04/14 09:24:56;;;;;;;22.90;16.67;;;20.50;99.90;;;;;;5052912;28;20057;-65
2022/04/14 09:27:24;;;;;;;19.42;14.10;;;21.10;99.90;;;;;;5052895;28;20502;-65
2022/04/14 09:29:51;;;;;;;24.15;16.40;;;22.30;98.90;;;;;;5052875;28;20025;-66
2022/04/14 09:32:34;;;;;;;19.05;13.55;;;23.20;96.60;;;;;;5034493;28;20046;-65
2022/04/14 09:35:23;;;;;;;16.90;12.48;;;24.40;94.60;;;;;;5052556;28;20036;-66
2022/04/14 09:38:02;;;;;;;19.30;13.82;;;26.10;91.70;;;;;;5053149;28;20333;-65
2022/04/14 09:40:33;;;;;;;18.90;12.35;;;27.90;84.90;;;;;;5053033;28;20028;-65
2022/04/14 09:42:59;;;;;;;17.52;14.25;;;28.70;79.70;;;;;;5053361;28;20049;-66
2022/04/14 09:45:26;;;;;;;14.60;12.90;;;29.70;76.10;;;;;;5053195;28;20052;-65
2022/04/14 09:47:53;;;;;;;18.85;13.23;;;30.20;73.40;;;;;;5052342;28;20054;-65
2022/04/14 09:50:40;;;;;;;16.10;14.40;;;30.40;71.10;;;;;;5052317;28;20037;-66
2022/04/14 09:53:06;;;;;;;18.02;15.25;;;29.20;71.30;;;;;;5052337;28;20109;-66
2022/04/14 09:55:42;;;;;;;17.13;14.65;;;27.60;73.70;;;;;;5052477;28;20455;-66
2022/04/14 09:58:15;;;;;;;25.85;14.07;;;26.90;75.60;;;;;;5052491;28;20017;-66
2022/04/14 10:00:48;;;;;;;17.40;14.60;;;26.30;77.20;;;;;;5052849;28;20021;-66
2022/04/14 10:03:28;;;;;;;18.48;14.43;;;25.50;79.90;;;;;;5052555;28;20127;-66
2022/04/14 10:05:56;;;;;;;21.27;14.07;;;24.80;81.30;;;;;;5052645;28;20020;-66
2022/04/14 10:08:25;;;;;;;21.02;12.95;;;25.00;82.60;;;;;;5034472;28;20057;-65
2022/04/14 10:11:04;;;;;;;15.00;11.77;;;25.70;81.00;;;;;;5052255;28;20025;-66
2022/04/14 10:13:38;;;;;;;19.27;14.43;;;26.80;78.90;;;;;;5052496;28;20025;-66
2022/04/14 10:16:04;;;;;;;16.73;12.82;;;27.10;77.10;;;;;;5052384;28;20028;-65
2022/04/14 10:18:31;;;;;;;16.55;13.52;;;27.70;76.00;;;;;;5052364;28;20029;-65
2022/04/14 10:20:57;;;;;;;20.33;14.50;;;28.40;74.00;;;;;;5052395;28;20488;-65
2022/04/14 10:23:26;;;;;;;15.20;12.95;;;28.60;73.30;;;;;;5034639;28;20099;-65
2022/04/14 10:25:53;;;;;;;19.17;15.27;;;28.70;72.80;;;;;;5053030;28;20064;-65
2022/04/14 10:28:20;;;;;;;19.70;14.55;;;29.10;72.00;;;;;;5034778;28;20028;-65
2022/04/14 10:30:48;;;;;;;17.63;14.82;;;29.20;71.10;;;;;;5052868;28;20028;-64
2022/04/14 10:33:14;;;;;;;17.70;14.30;;;29.50;70.00;;;;;;5052767;28;20033;-64
2022/04/14 10:35:41;;;;;;;17.42;13.90;;;29.80;69.10;;;;;;5055902;28;20057;-63
2022/04/14 10:38:28;;;;;;;17.13;14.57;;;29.80;69.00;;;;;;5056066;28;20542;-63
2022/04/14 10:41:17;;;;;;;18.73;14.98;;;30.10;68.00;;;;;;5055975;28;20033;-64
2022/04/14 10:43:47;;;;;;;17.65;15.02;;;29.40;68.70;;;;;;5056186;28;20025;-63
2022/04/14 10:46:15;;;;;;;16.25;14.32;;;29.00;69.50;;;;;;5056564;28;20049;-63
2022/04/14 10:48:43;;;;;;;15.55;12.00;;;29.40;69.10;;;;;;5056409;28;20029;-61
2022/04/14 10:51:25;;;;;;;17.92;14.18;;;30.00;68.00;;;;;;5056440;28;20021;-62
2022/04/14 10:53:57;;;;;;;16.83;14.48;;;29.40;68.50;;;;;;5037957;28;20037;-64
2022/04/14 10:56:41;;;;;;;17.33;15.35;;;28.90;69.20;;;;;;5055926;28;20071;-64
2022/04/14 10:59:14;;;;;;;19.55;16.20;;;28.90;70.10;;;;;;5055508;28;20020;-64
2022/04/14 11:01:50;;;;;;;20.92;14.77;;;28.80;68.90;;;;;;5037594;28;20086;-63
2022/04/14 11:04:35;;;;;;;20.83;15.15;;;29.00;69.30;;;;;;5056239;28;20100;-64
2022/04/14 11:07:08;;;;;;;18.25;16.08;;;29.00;68.50;;;;;;5056061;28;20106;-63
2022/04/14 11:09:43;;;;;;;20.60;16.10;;;28.20;69.40;;;;;;5056078;28;20035;-63
2022/04/14 11:12:27;;;;;;;18.23;16.33;;;27.50;71.10;;;;;;5056132;28;20071;-64
2022/04/14 11:15:28;;;;;;;20.05;17.65;;;26.40;73.20;;;;;;5057091;28;20025;-63
2022/04/14 11:18:03;;;;;;;20.88;17.17;;;24.80;76.40;;;;;;5056519;28;20029;-62
2022/04/14 11:20:38;;;;;;;20.50;17.20;;;24.00;79.30;;;;;;5056084;28;20502;-66
2022/04/14 11:23:15;;;;;;;23.83;16.63;;;23.50;81.60;;;;;;5055038;28;20510;-63
2022/04/14 11:25:49;;;;;;;22.45;16.77;;;23.50;83.50;;;;;;5055486;28;20206;-65
2022/04/14 11:28:21;;;;;;;21.55;16.27;;;23.50;83.60;;;;;;5055614;28;20051;-66
2022/04/14 11:30:48;;;;;;;26.48;18.55;;;23.40;83.40;;;;;;5037725;28;20021;-65
2022/04/14 11:33:30;;;;;;;20.23;15.68;;;23.20;83.20;;;;;;5055380;28;20100;-66
2022/04/14 11:36:21;;;;;;;25.95;17.13;;;23.10;84.50;;;;;;5037659;28;20466;-65
2022/04/14 11:38:54;;;;;;;23.55;15.88;;;22.70;86.50;;;;;;5056116;28;20361;-66
2022/04/14 11:41:35;;;;;;;21.58;16.77;;;22.60;87.80;;;;;;5056523;28;20125;-66
2022/04/14 11:44:03;;;;;;;23.85;18.25;;;22.70;87.30;;;;;;5055827;28;20021;-66
2022/04/14 11:46:29;;;;;;;24.08;18.13;;;22.40;87.90;;;;;;5054897;28;20557;-66
2022/04/14 11:48:55;;;;;;;23.25;17.40;;;22.30;88.80;;;;;;5055304;28;20040;-65
2022/04/14 11:51:21;;;;;;;23.83;17.20;;;22.30;89.60;;;;;;5054799;28;20052;-66
2022/04/14 11:53:46;;;;;;;20.63;15.40;;;22.20;90.00;;;;;;5055341;28;20521;-67
2022/04/14 11:56:19;;;;;;;24.58;16.52;;;22.10;89.40;;;;;;5055641;28;20025;-66
2022/04/14 11:58:45;;;;;;;25.02;17.50;;;22.00;90.00;;;;;;5056414;28;20033;-67
2022/04/14 12:01:12;;;;;;;26.38;17.52;;;21.90;90.40;;;;;;5055659;28;20040;-66
2022/04/14 12:03:38;;;;;;;23.33;18.30;;;21.70;90.80;;;;;;5057386;28;20024;-67
2022/04/14 12:06:06;;;;;;;23.58;18.52;;;21.70;90.80;;;;;;5056413;28;20113;-65
2022/04/14 12:08:32;;;;;;;50.00;17.40;;;21.70;91.30;;;;;;5058294;28;20040;-68
2022/04/14 12:11:12;;;;;;;32.00;18.30;;;21.80;91.70;;;;;;5037457;28;20075;-67
2022/04/14 12:13:38;;;;;;;38.78;18.70;;;21.80;91.60;;;;;;5056134;28;20017;-66
2022/04/14 12:16:09;;;;;;;27.88;17.00;;;21.70;91.90;;;;;;5054915;28;20025;-66
2022/04/14 12:18:37;;;;;;;25.85;17.17;;;21.70;91.50;;;;;;5056366;28;20379;-66
2022/04/14 12:21:04;;;;;;;25.20;14.05;;;21.70;91.60;;;;;;5038453;28;20017;-68
2022/04/14 12:23:30;;;;;;;19.95;15.88;;;21.70;92.20;;;;;;5055569;28;20017;-66
2022/04/14 12:25:57;;;;;;;19.20;14.75;;;21.70;91.60;;;;;;5055141;28;20621;-68
2022/04/14 12:28:24;;;;;;;23.23;14.85;;;21.60;92.10;;;;;;5038384;28;20403;-67
2022/04/14 12:30:50;;;;;;;21.13;14.20;;;21.60;91.50;;;;;;5056215;28;20119;-67
2022/04/14 12:33:29;;;;;;;23.65;16.67;;;21.60;92.20;;;;;;5055839;28;20490;-66
2022/04/14 12:36:09;;;;;;;25.40;15.88;;;21.60;92.30;;;;;;5055653;28;20029;-66
2022/04/14 12:38:43;;;;;;;24.10;16.00;;;21.60;92.40;;;;;;5054969;28;20417;-66